Time;durP1;ratioP1;P1;durP2;ratioP2;P2;SDS_P1;SDS_P2;PMS_P1;PMS_P2;Temp;Humidity;BMP_temperature;BMP_pressure;BME280_temperature;BME280_humidity;BME280_pressure;Samples;Min_cycle;Max_cycle;Signal;HPM_P1;HPM_P2
2023/05/11 00:01:19;;;;;;;5.23;3.90;;;;;;;;;;5054247;28;20223;-78
2023/05/11 00:03:46;;;;;;;6.90;3.80;;;;;;;;;;5054263;28;20278;-78
2023/05/11 00:06:13;;;;;;;10.60;3.80;;;;;;;;;;5054073;28;20249;-77
2023/05/11 00:08:40;;;;;;;6.43;3.30;;;;;;;;;;5053549;28;20246;-78
2023/05/11 00:11:08;;;;;;;4.97;3.30;;;;;;;;;;5054360;28;20200;-78
2023/05/11 00:13:35;;;;;;;5.67;3.50;;;;;;;;;;5053728;28;20682;-78
2023/05/11 00:16:02;;;;;;;8.03;3.50;;;;;;;;;;5053904;28;20196;-78
2023/05/11 00:18:31;;;;;;;7.67;3.13;;;;;;;;;;5054052;28;20196;-78
2023/05/11 00:20:58;;;;;;;8.80;3.77;;;;;;;;;;5053698;28;20601;-78
2023/05/11 00:23:25;;;;;;;7.17;3.70;;;;;;;;;;5053336;28;20253;-79
2023/05/11 00:25:53;;;;;;;6.47;3.63;;;;;;;;;;5054138;28;20274;-79
2023/05/11 00:28:21;;;;;;;7.90;3.60;;;;;;;;;;5054000;28;20278;-78
2023/05/11 00:30:48;;;;;;;7.73;3.63;;;;;;;;;;5053823;28;20231;-78
2023/05/11 00:33:15;;;;;;;4.70;3.20;;;;;;;;;;5053328;28;20763;-79
2023/05/11 00:35:44;;;;;;;5.70;3.80;;;;;;;;;;5053559;28;20596;-79
2023/05/11 00:38:11;;;;;;;5.33;3.73;;;;;;;;;;5053262;28;20196;-78
2023/05/11 00:40:38;;;;;;;6.70;4.03;;;;;;;;;;5053619;28;20219;-78
2023/05/11 00:43:05;;;;;;;7.43;4.00;;;;;;;;;;5053596;28;20634;-79
2023/05/11 00:45:33;;;;;;;7.43;4.20;;;;;;;;;;5053352;28;20287;-79
2023/05/11 00:48:00;;;;;;;5.87;4.10;;;;;;;;;;5036846;28;20295;-79
2023/05/11 00:50:27;;;;;;;6.23;3.90;;;;;;;;;;5033535;28;20307;-78
2023/05/11 00:52:56;;;;;;;6.37;4.40;;;;;;;;;;5032600;28;20616;-77
2023/05/11 00:55:23;;;;;;;6.57;4.40;;;;;;;;;;5033052;28;20291;-77
2023/05/11 00:57:51;;;;;;;9.07;5.03;;;;;;;;;;5033419;28;20196;-79
2023/05/11 01:00:18;;;;;;;9.17;4.83;;;;;;;;;;5033098;28;20322;-78
2023/05/11 01:02:45;;;;;;;7.47;4.80;;;;;;;;;;5033185;28;20224;-79
2023/05/11 01:05:12;;;;;;;8.90;5.47;;;;;;;;;;5032801;28;20224;-78
2023/05/11 01:07:42;;;;;;;9.93;5.53;;;;;;;;;;5033093;28;20330;-77
2023/05/11 01:10:15;;;;;;;8.20;5.27;;;;;;;;;;5033244;28;20291;-78
2023/05/11 01:12:46;;;;;;;8.20;5.57;;;;;;;;;;5032918;28;20291;-78
2023/05/11 01:15:16;;;;;;;8.00;5.07;;;;;;;;;;5032952;28;20208;-79
2023/05/11 01:17:46;;;;;;;9.83;5.03;;;;;;;;;;5032677;28;20228;-77
2023/05/11 01:20:16;;;;;;;6.97;5.73;;;;;;;;;;5032938;28;20319;-78
2023/05/11 01:22:49;;;;;;;6.57;5.20;;;;;;;;;;5032693;28;20197;-77
2023/05/11 01:25:27;;;;;;;8.00;5.17;;;;;;;;;;5025205;28;20288;-77
2023/05/11 01:28:10;;;;;;;8.03;5.40;;;;;;;;;;5019711;28;20287;-78
2023/05/11 01:30:44;;;;;;;7.67;5.50;;;;;;;;;;5013054;28;20300;-77
2023/05/11 01:33:13;;;;;;;8.07;5.27;;;;;;;;;;5013187;28;20225;-78
2023/05/11 01:35:43;;;;;;;8.90;5.07;;;;;;;;;;5012966;28;20205;-78
2023/05/11 01:38:12;;;;;;;10.27;5.40;;;;;;;;;;5012767;28;20205;-78
2023/05/11 01:40:40;;;;;;;7.87;4.83;;;;;;;;;;5012499;28;20272;-78
2023/05/11 01:43:10;;;;;;;10.40;4.97;;;;;;;;;;5013030;28;20291;-78
2023/05/11 01:45:39;;;;;;;6.83;4.60;;;;;;;;;;5012919;28;20283;-78
2023/05/11 01:48:11;;;;;;;11.93;4.80;;;;;;;;;;5012805;28;20197;-78
2023/05/11 01:50:39;;;;;;;7.77;4.17;;;;;;;;;;5011860;28;20203;-78
2023/05/11 01:53:07;;;;;;;10.40;4.50;;;;;;;;;;5013007;28;20294;-77
2023/05/11 01:55:35;;;;;;;6.63;3.83;;;;;;;;;;5012409;28;20200;-78
2023/05/11 01:58:04;;;;;;;6.87;3.70;;;;;;;;;;5012385;28;20296;-78
2023/05/11 02:00:31;;;;;;;10.90;4.37;;;;;;;;;;5012359;28;20319;-78
2023/05/11 02:02:59;;;;;;;9.40;3.67;;;;;;;;;;5012083;28;20742;-78
2023/05/11 02:05:29;;;;;;;8.20;3.60;;;;;;;;;;5011760;28;20296;-78
2023/05/11 02:07:57;;;;;;;8.57;3.80;;;;;;;;;;5012153;28;20233;-79
2023/05/11 02:10:25;;;;;;;6.27;3.57;;;;;;;;;;5011846;28;20296;-78
2023/05/11 02:12:53;;;;;;;8.53;3.20;;;;;;;;;;5012009;28;20296;-78
2023/05/11 02:15:22;;;;;;;7.67;3.00;;;;;;;;;;5046938;28;20204;-78
2023/05/11 02:17:49;;;;;;;7.83;2.70;;;;;;;;;;5052108;28;20203;-78
2023/05/11 02:20:17;;;;;;;7.70;2.50;;;;;;;;;;5050915;28;20318;-78
2023/05/11 02:22:46;;;;;;;4.13;2.27;;;;;;;;;;5051405;28;20850;-78
2023/05/11 02:25:13;;;;;;;8.73;2.70;;;;;;;;;;5051485;28;20652;-78
2023/05/11 02:27:41;;;;;;;5.20;2.13;;;;;;;;;;5051679;28;20291;-79
2023/05/11 02:30:08;;;;;;;5.60;2.17;;;;;;;;;;5051323;28;20294;-78
2023/05/11 02:32:38;;;;;;;5.07;2.30;;;;;;;;;;5051915;28;20782;-78
2023/05/11 02:35:07;;;;;;;6.30;2.37;;;;;;;;;;5050875;28;20680;-78
2023/05/11 02:37:35;;;;;;;4.57;2.37;;;;;;;;;;5051569;28;20196;-78
2023/05/11 02:40:06;;;;;;;3.93;2.10;;;;;;;;;;5051363;28;20207;-78
2023/05/11 02:42:37;;;;;;;6.33;2.23;;;;;;;;;;5051460;28;20696;-78
2023/05/11 02:45:06;;;;;;;3.93;2.00;;;;;;;;;;5051248;28;20740;-78
2023/05/11 02:47:36;;;;;;;4.97;2.10;;;;;;;;;;5051346;28;20687;-77
2023/05/11 02:50:04;;;;;;;5.23;1.77;;;;;;;;;;5050721;28;20322;-78
2023/05/11 02:52:33;;;;;;;8.73;2.30;;;;;;;;;;5051278;28;20668;-78
2023/05/11 02:55:01;;;;;;;8.80;2.03;;;;;;;;;;5051305;28;20291;-78
2023/05/11 02:57:30;;;;;;;7.40;2.03;;;;;;;;;;5051175;28;20218;-78
2023/05/11 02:59:57;;;;;;;7.23;1.83;;;;;;;;;;5051160;28;20287;-77
2023/05/11 03:02:24;;;;;;;5.00;1.90;;;;;;;;;;5050883;28;20318;-76
2023/05/11 03:04:51;;;;;;;7.03;2.00;;;;;;;;;;5051113;28;20290;-77
2023/05/11 03:07:18;;;;;;;4.40;1.80;;;;;;;;;;5050784;28;20222;-77
2023/05/11 03:09:46;;;;;;;7.03;1.90;;;;;;;;;;5051385;28;20676;-77
2023/05/11 03:12:14;;;;;;;7.97;2.13;;;;;;;;;;5051304;28;20282;-77
2023/05/11 03:14:43;;;;;;;7.80;1.63;;;;;;;;;;5050744;28;20668;-77
2023/05/11 03:17:10;;;;;;;8.17;2.00;;;;;;;;;;5050336;28;20736;-78
2023/05/11 03:19:40;;;;;;;6.53;1.83;;;;;;;;;;5051103;28;20196;-78
2023/05/11 03:22:08;;;;;;;8.80;1.97;;;;;;;;;;5051833;28;20716;-78
2023/05/11 03:24:35;;;;;;;7.87;2.00;;;;;;;;;;5054295;28;20227;-77
2023/05/11 03:27:03;;;;;;;5.10;1.97;;;;;;;;;;5035030;28;20208;-78
2023/05/11 03:29:33;;;;;;;5.47;2.13;;;;;;;;;;5034831;28;20201;-77
2023/05/11 03:32:01;;;;;;;8.43;1.90;;;;;;;;;;5034707;28;20254;-77
2023/05/11 03:34:29;;;;;;;7.83;2.13;;;;;;;;;;5035182;28;20246;-78
2023/05/11 03:36:58;;;;;;;7.23;2.00;;;;;;;;;;5034983;28;20391;-77
2023/05/11 03:39:26;;;;;;;6.50;2.10;;;;;;;;;;5034444;28;20243;-78
2023/05/11 03:41:53;;;;;;;7.53;2.20;;;;;;;;;;5034333;28;20220;-77
2023/05/11 03:44:22;;;;;;;7.93;2.17;;;;;;;;;;5035195;28;20291;-78
2023/05/11 03:46:50;;;;;;;5.63;2.03;;;;;;;;;;5034246;28;20203;-78
2023/05/11 03:49:19;;;;;;;7.33;2.37;;;;;;;;;;5034448;28;20232;-77
2023/05/11 03:51:47;;;;;;;9.23;2.50;;;;;;;;;;5034426;28;20200;-78
2023/05/11 03:54:14;;;;;;;10.37;3.07;;;;;;;;;;5034676;28;20243;-78
2023/05/11 03:56:41;;;;;;;4.93;2.00;;;;;;;;;;5034656;28;20192;-77
2023/05/11 03:59:09;;;;;;;5.47;2.10;;;;;;;;;;5035136;28;20225;-76
2023/05/11 04:01:36;;;;;;;8.43;2.60;;;;;;;;;;5033837;28;20260;-77
2023/05/11 04:04:04;;;;;;;7.00;2.60;;;;;;;;;;5034517;28;20203;-78
2023/05/11 04:06:32;;;;;;;7.67;2.40;;;;;;;;;;5034525;28;20299;-77
2023/05/11 04:08:59;;;;;;;6.30;2.43;;;;;;;;;;5034466;28;20623;-78
2023/05/11 04:11:29;;;;;;;6.53;2.70;;;;;;;;;;5034148;28;20204;-78
2023/05/11 04:13:56;;;;;;;7.77;2.70;;;;;;;;;;5033986;28;20200;-78
2023/05/11 04:16:23;;;;;;;6.40;2.90;;;;;;;;;;5033969;28;20292;-78
2023/05/11 04:18:50;;;;;;;8.10;2.87;;;;;;;;;;5034217;28;20319;-78
2023/05/11 04:21:18;;;;;;;5.77;2.80;;;;;;;;;;5034121;28;20257;-77
2023/05/11 04:23:46;;;;;;;9.27;3.10;;;;;;;;;;5034156;28;20287;-78
2023/05/11 04:26:13;;;;;;;6.53;2.57;;;;;;;;;;5033981;28;20639;-77
2023/05/11 04:28:41;;;;;;;7.57;3.20;;;;;;;;;;5034198;28;20291;-76
2023/05/11 04:31:09;;;;;;;8.73;2.53;;;;;;;;;;5033280;28;20599;-77
2023/05/11 04:33:36;;;;;;;7.27;2.60;;;;;;;;;;5033135;28;20208;-78
2023/05/11 04:36:03;;;;;;;9.13;2.83;;;;;;;;;;5033703;28;20659;-77
2023/05/11 04:38:30;;;;;;;8.47;3.00;;;;;;;;;;5033586;28;20223;-78
2023/05/11 04:41:03;;;;;;;6.17;3.10;;;;;;;;;;5033405;28;20673;-77
2023/05/11 04:43:30;;;;;;;10.33;2.90;;;;;;;;;;5033552;28;20287;-78
2023/05/11 04:45:58;;;;;;;7.23;3.40;;;;;;;;;;5033129;28;20327;-77
2023/05/11 04:48:25;;;;;;;6.33;3.03;;;;;;;;;;5033369;28;20566;-77
2023/05/11 04:50:53;;;;;;;8.40;3.30;;;;;;;;;;5033517;28;20196;-77
2023/05/11 04:53:20;;;;;;;8.17;3.20;;;;;;;;;;5033512;28;20196;-76
2023/05/11 04:55:47;;;;;;;10.03;3.30;;;;;;;;;;5033444;28;20293;-76
2023/05/11 04:58:15;;;;;;;8.97;3.20;;;;;;;;;;5033421;28;20239;-77
2023/05/11 05:00:43;;;;;;;8.30;3.80;;;;;;;;;;5032685;28;20235;-76
2023/05/11 05:03:10;;;;;;;10.10;3.67;;;;;;;;;;5033356;28;20259;-75
2023/05/11 05:05:37;;;;;;;9.23;3.50;;;;;;;;;;5033052;28;20216;-77
2023/05/11 05:08:04;;;;;;;8.13;4.00;;;;;;;;;;5033239;28;20231;-77
2023/05/11 05:10:31;;;;;;;7.50;3.57;;;;;;;;;;5033088;28;20258;-77
2023/05/11 05:12:58;;;;;;;8.40;3.30;;;;;;;;;;5033131;28;20201;-77
2023/05/11 05:15:27;;;;;;;8.87;3.60;;;;;;;;;;5034150;28;20207;-78
2023/05/11 05:17:54;;;;;;;8.83;3.33;;;;;;;;;;5032904;28;20279;-78
2023/05/11 05:20:21;;;;;;;8.57;3.83;;;;;;;;;;5032966;28;20192;-78
2023/05/11 05:22:48;;;;;;;9.30;3.80;;;;;;;;;;5032533;28;20270;-78
2023/05/11 05:25:16;;;;;;;8.30;3.93;;;;;;;;;;5033094;28;20283;-79
2023/05/11 05:27:43;;;;;;;10.93;4.00;;;;;;;;;;5032338;28;20228;-79
2023/05/11 05:30:10;;;;;;;10.03;4.10;;;;;;;;;;5032494;28;20619;-78
2023/05/11 05:32:39;;;;;;;8.10;4.10;;;;;;;;;;5032656;28;20699;-78
2023/05/11 05:35:06;;;;;;;11.83;4.27;;;;;;;;;;5032821;28;20220;-79
2023/05/11 05:37:33;;;;;;;10.43;4.77;;;;;;;;;;5032598;28;20295;-79
2023/05/11 05:40:00;;;;;;;9.53;3.83;;;;;;;;;;5032351;28;20291;-78
2023/05/11 05:42:28;;;;;;;9.83;4.07;;;;;;;;;;5032083;28;20327;-80
2023/05/11 05:44:55;;;;;;;7.57;3.70;;;;;;;;;;5031905;28;20230;-78
2023/05/11 05:47:22;;;;;;;7.50;3.47;;;;;;;;;;5032314;28;20655;-78
2023/05/11 05:49:50;;;;;;;9.80;4.00;;;;;;;;;;5031746;28;20677;-79
2023/05/11 05:52:18;;;;;;;10.70;4.00;;;;;;;;;;5032120;28;20275;-78
2023/05/11 05:54:45;;;;;;;7.43;4.10;;;;;;;;;;5032048;28;20287;-78
2023/05/11 05:57:13;;;;;;;7.00;3.80;;;;;;;;;;5031685;28;20287;-78
2023/05/11 05:59:40;;;;;;;8.97;4.50;;;;;;;;;;5032307;28;20653;-78
2023/05/11 06:02:07;;;;;;;10.50;4.03;;;;;;;;;;5032296;28;20677;-79
2023/05/11 06:04:34;;;;;;;6.77;4.40;;;;;;;;;;5032124;28;20761;-78
2023/05/11 06:07:03;;;;;;;7.60;4.60;;;;;;;;;;5032380;28;20295;-78
2023/05/11 06:09:30;;;;;;;10.17;4.33;;;;;;;;;;5032010;28;20214;-78
2023/05/11 06:11:57;;;;;;;8.33;4.30;;;;;;;;;;5031896;28;20200;-78
2023/05/11 06:14:24;;;;;;;13.77;4.53;;;;;;;;;;5031980;28;20207;-78
2023/05/11 06:16:52;;;;;;;10.50;4.27;;;;;;;;;;5032197;28;20287;-78
2023/05/11 06:19:20;;;;;;;12.63;4.20;;;;;;;;;;5031986;28;20192;-78
2023/05/11 06:21:47;;;;;;;8.53;4.33;;;;;;;;;;5032184;28;20255;-78
2023/05/11 06:24:16;;;;;;;12.73;4.23;;;;;;;;;;5031825;28;20208;-79
2023/05/11 06:26:43;;;;;;;9.30;4.13;;;;;;;;;;5031542;28;20200;-78
2023/05/11 06:29:10;;;;;;;8.73;3.87;;;;;;;;;;5031608;28;20300;-78
2023/05/11 06:31:37;;;;;;;12.03;4.67;;;;;;;;;;5032005;28;20645;-79
2023/05/11 06:34:04;;;;;;;9.33;3.20;;;;;;;;;;5031948;28;20202;-78
2023/05/11 06:36:32;;;;;;;6.50;3.20;;;;;;;;;;5031706;28;20753;-79
2023/05/11 06:38:59;;;;;;;6.63;3.70;;;;;;;;;;5031854;28;20224;-78
2023/05/11 06:41:27;;;;;;;10.10;4.00;;;;;;;;;;5030986;28;20288;-79
2023/05/11 06:43:55;;;;;;;7.33;3.60;;;;;;;;;;5031670;28;20243;-78
2023/05/11 06:46:22;;;;;;;10.70;3.37;;;;;;;;;;5031075;28;20724;-79
2023/05/11 06:48:49;;;;;;;7.20;2.83;;;;;;;;;;5031269;28;20339;-79
2023/05/11 06:51:16;;;;;;;8.73;3.30;;;;;;;;;;5031570;28;20202;-78
2023/05/11 06:53:43;;;;;;;7.67;3.23;;;;;;;;;;5031944;28;20226;-78
2023/05/11 06:56:11;;;;;;;7.00;3.40;;;;;;;;;;5030847;28;20287;-78
2023/05/11 06:58:39;;;;;;;8.50;3.90;;;;;;;;;;5031179;28;20230;-78
2023/05/11 07:01:07;;;;;;;6.77;3.30;;;;;;;;;;5031515;28;20291;-77
2023/05/11 07:03:34;;;;;;;7.27;3.20;;;;;;;;;;5031219;28;20811;-78
2023/05/11 07:06:01;;;;;;;7.10;3.20;;;;;;;;;;5031385;28;20236;-78
2023/05/11 07:08:28;;;;;;;7.43;2.90;;;;;;;;;;5031492;28;20231;-78
2023/05/11 07:10:55;;;;;;;6.10;3.10;;;;;;;;;;5030688;28;20295;-78
2023/05/11 07:13:22;;;;;;;7.57;2.80;;;;;;;;;;5032038;28;20210;-78
2023/05/11 07:15:51;;;;;;;7.20;2.30;;;;;;;;;;5051435;28;20294;-79
2023/05/11 07:18:18;;;;;;;6.07;2.30;;;;;;;;;;5050829;28;20200;-78
2023/05/11 07:20:48;;;;;;;4.63;1.80;;;;;;;;;;5050884;28;20629;-78
2023/05/11 07:23:16;;;;;;;5.93;2.13;;;;;;;;;;5051049;28;20281;-78
2023/05/11 07:25:43;;;;;;;5.10;2.00;;;;;;;;;;5051071;28;20192;-77
2023/05/11 07:28:10;;;;;;;5.03;2.10;;;;;;;;;;5051021;28;20648;-78
2023/05/11 07:30:37;;;;;;;3.90;1.60;;;;;;;;;;5050800;28;20566;-78
2023/05/11 07:33:06;;;;;;;6.15;2.25;;;;;;;;;;5050811;28;20669;-78
2023/05/11 07:35:33;;;;;;;5.40;1.50;;;;;;;;;;5050941;28;20192;-79
2023/05/11 07:38:00;;;;;;;3.13;1.77;;;;;;;;;;5051295;28;20220;-78
2023/05/11 07:40:28;;;;;;;4.47;2.08;;;;;;;;;;5050468;28;20283;-78
2023/05/11 07:42:55;;;;;;;5.88;1.30;;;;;;;;;;5050596;28;20722;-78
2023/05/11 07:45:22;;;;;;;4.97;1.55;;;;;;;;;;5050636;28;20294;-78
2023/05/11 07:47:49;;;;;;;3.85;1.50;;;;;;;;;;5051354;28;20195;-78
2023/05/11 07:50:18;;;;;;;5.95;1.40;;;;;;;;;;5050758;28;20259;-78
2023/05/11 07:52:45;;;;;;;6.18;1.75;;;;;;;;;;5050459;28;20279;-79
2023/05/11 07:55:12;;;;;;;4.55;1.38;;;;;;;;;;5050887;28;20662;-79
2023/05/11 07:57:39;;;;;;;5.28;1.88;;;;;;;;;;5050917;28;20223;-79
2023/05/11 08:00:08;;;;;;;7.85;1.77;;;;;;;;;;5050831;28;20246;-80
2023/05/11 08:02:35;;;;;;;5.75;1.55;;;;;;;;;;5051083;28;20306;-78
2023/05/11 08:05:03;;;;;;;5.97;1.58;;;;;;;;;;5050534;28;20708;-79
2023/05/11 08:07:31;;;;;;;5.63;1.63;;;;;;;;;;5050377;28;20210;-79
2023/05/11 08:09:59;;;;;;;4.75;1.50;;;;;;;;;;5052787;28;20227;-79
2023/05/11 08:12:26;;;;;;;5.55;1.70;;;;;;;;;;5054475;28;20306;-80
2023/05/11 08:14:54;;;;;;;5.07;1.60;;;;;;;;;;5053902;28;20310;-79
2023/05/11 08:17:21;;;;;;;5.70;1.50;;;;;;;;;;5054166;28;20226;-80
2023/05/11 08:19:48;;;;;;;7.07;1.88;;;;;;;;;;5054574;28;20220;-79
2023/05/11 08:22:15;;;;;;;6.03;1.60;;;;;;;;;;5053743;28;20620;-79
2023/05/11 08:24:44;;;;;;;11.18;2.08;;;;;;;;;;5052617;28;20822;-78
2023/05/11 08:27:11;;;;;;;9.60;2.05;;;;;;;;;;5054014;28;20200;-79
2023/05/11 08:29:39;;;;;;;9.30;1.90;;;;;;;;;;5053757;28;20691;-80
2023/05/11 08:32:06;;;;;;;6.57;1.73;;;;;;;;;;5053919;28;20282;-80
2023/05/11 08:34:33;;;;;;;5.68;1.75;;;;;;;;;;5054098;28;20192;-79
2023/05/11 08:37:00;;;;;;;4.57;1.67;;;;;;;;;;5053893;28;20288;-79
2023/05/11 08:39:27;;;;;;;6.50;1.98;;;;;;;;;;5053793;28;20196;-81
2023/05/11 08:41:58;;;;;;;5.80;1.70;;;;;;;;;;5053588;28;20204;-79
2023/05/11 08:44:26;;;;;;;5.43;1.65;;;;;;;;;;5053621;28;20237;-78
2023/05/11 08:46:54;;;;;;;6.97;1.60;;;;;;;;;;5053635;28;20649;-79
2023/05/11 08:49:21;;;;;;;6.97;1.85;;;;;;;;;;5053726;28;20327;-79
2023/05/11 08:51:48;;;;;;;6.03;2.03;;;;;;;;;;5053182;28;20284;-80
2023/05/11 08:54:15;;;;;;;6.88;1.85;;;;;;;;;;5053457;28;20296;-79
2023/05/11 08:56:43;;;;;;;7.72;1.80;;;;;;;;;;5053528;28;20223;-79
2023/05/11 08:59:13;;;;;;;9.00;1.70;;;;;;;;;;5053355;28;20294;-79
2023/05/11 09:01:41;;;;;;;9.32;2.05;;;;;;;;;;5053542;28;20287;-79
2023/05/11 09:04:09;;;;;;;5.80;1.90;;;;;;;;;;5053449;28;20233;-79
2023/05/11 09:06:37;;;;;;;7.22;2.22;;;;;;;;;;5052868;28;20200;-80
2023/05/11 09:09:05;;;;;;;9.77;1.77;;;;;;;;;;5053458;28;20273;-80
2023/05/11 09:11:32;;;;;;;6.53;1.83;;;;;;;;;;5053065;28;20199;-79
2023/05/11 09:14:00;;;;;;;7.35;1.60;;;;;;;;;;5052949;28;20227;-79
2023/05/11 09:16:28;;;;;;;7.80;1.90;;;;;;;;;;5053160;28;20258;-80
2023/05/11 09:19:00;;;;;;;8.43;1.80;;;;;;;;;;5053306;28;20245;-80
2023/05/11 09:21:27;;;;;;;6.72;1.70;;;;;;;;;;5052506;28;20290;-79
2023/05/11 09:23:57;;;;;;;5.10;1.50;;;;;;;;;;5052977;28;20240;-80
2023/05/11 09:26:27;;;;;;;6.88;1.75;;;;;;;;;;5053152;28;20269;-79
2023/05/11 09:28:57;;;;;;;5.95;1.58;;;;;;;;;;5052829;28;20200;-79
2023/05/11 09:31:39;;;;;;;5.90;1.75;;;;;;;;;;5052919;28;20196;-79
2023/05/11 09:34:09;;;;;;;5.80;1.50;;;;;;;;;;5052587;28;20669;-79
2023/05/11 09:36:37;;;;;;;5.18;1.60;;;;;;;;;;5052727;28;20219;-78
2023/05/11 09:39:04;;;;;;;4.28;1.50;;;;;;;;;;5052615;28;20188;-79
2023/05/11 09:41:31;;;;;;;7.15;1.85;;;;;;;;;;5052453;28;20287;-80
2023/05/11 09:44:05;;;;;;;6.03;1.70;;;;;;;;;;5052578;28;20318;-80
2023/05/11 09:46:32;;;;;;;5.13;1.90;;;;;;;;;;5052761;28;20231;-80
2023/05/11 09:49:01;;;;;;;3.47;1.50;;;;;;;;;;5052030;28;20326;-79
2023/05/11 09:51:31;;;;;;;3.85;1.40;;;;;;;;;;5052699;28;20594;-80
2023/05/11 09:53:59;;;;;;;4.97;1.50;;;;;;;;;;5052403;28;20200;-80
2023/05/11 09:56:41;;;;;;;4.75;1.63;;;;;;;;;;5052573;28;20290;-79
2023/05/11 09:59:08;;;;;;;5.72;1.52;;;;;;;;;;5052591;28;20287;-80
2023/05/11 10:01:36;;;;;;;5.13;1.67;;;;;;;;;;5052050;28;20297;-79
2023/05/11 10:04:07;;;;;;;3.35;1.10;;;;;;;;;;5051820;28;20234;-79
2023/05/11 10:06:48;;;;;;;3.92;1.17;;;;;;;;;;5052666;28;20607;-79
2023/05/11 10:09:19;;;;;;;3.67;1.10;;;;;;;;;;5052255;28;20215;-80
2023/05/11 10:11:46;;;;;;;3.13;1.20;;;;;;;;;;5052036;28;20638;-80
2023/05/11 10:14:14;;;;;;;2.90;1.30;;;;;;;;;;5052204;28;20294;-80
2023/05/11 10:16:42;;;;;;;2.58;1.02;;;;;;;;;;5052060;28;20203;-80
2023/05/11 10:19:11;;;;;;;4.00;1.13;;;;;;;;;;5051699;28;20192;-79
2023/05/11 10:21:39;;;;;;;2.38;0.98;;;;;;;;;;5052125;28;20223;-80
2023/05/11 10:24:06;;;;;;;3.00;1.20;;;;;;;;;;5051503;28;20231;-79
2023/05/11 10:26:34;;;;;;;4.18;1.20;;;;;;;;;;5051701;28;20610;-80
2023/05/11 10:29:01;;;;;;;3.30;1.05;;;;;;;;;;5051724;28;20199;-80
2023/05/11 10:31:29;;;;;;;6.25;1.40;;;;;;;;;;5051270;28;20679;-80
2023/05/11 10:33:57;;;;;;;4.68;1.30;;;;;;;;;;5051042;28;20375;-80
2023/05/11 10:36:27;;;;;;;3.25;1.17;;;;;;;;;;5051592;28;20755;-79
2023/05/11 10:38:54;;;;;;;3.72;1.40;;;;;;;;;;5051860;28;20230;-80
2023/05/11 10:41:40;;;;;;;4.60;1.40;;;;;;;;;;5051605;28;20192;-80
2023/05/11 10:44:19;;;;;;;3.45;1.10;;;;;;;;;;5051716;28;20314;-80
2023/05/11 10:46:54;;;;;;;4.25;1.30;;;;;;;;;;5051093;28;20195;-80
2023/05/11 10:49:28;;;;;;;2.67;1.00;;;;;;;;;;5051220;28;20318;-80
2023/05/11 10:52:11;;;;;;;3.20;1.00;;;;;;;;;;5051420;28;20227;-80
2023/05/11 10:54:46;;;;;;;3.85;1.35;;;;;;;;;;5051092;28;20203;-79
2023/05/11 10:57:16;;;;;;;4.75;1.35;;;;;;;;;;5051335;28;20748;-79
2023/05/11 11:00:08;;;;;;;6.03;1.20;;;;;;;;;;5051281;28;20203;-80
2023/05/11 11:02:36;;;;;;;3.30;1.20;;;;;;;;;;5050737;28;20196;-79
2023/05/11 11:05:06;;;;;;;5.72;1.63;;;;;;;;;;5051471;28;20232;-80
2023/05/11 11:07:54;;;;;;;4.20;1.15;;;;;;;;;;5051210;28;20624;-80
2023/05/11 11:10:30;;;;;;;3.78;1.25;;;;;;;;;;5051382;28;20253;-80
2023/05/11 11:13:04;;;;;;;2.95;1.02;;;;;;;;;;5050977;28;20636;-80
2023/05/11 11:15:50;;;;;;;5.95;1.40;;;;;;;;;;5051145;28;20203;-80
2023/05/11 11:18:21;;;;;;;3.75;1.00;;;;;;;;;;5051037;28;20325;-80
2023/05/11 11:20:48;;;;;;;4.57;1.08;;;;;;;;;;5051681;28;20202;-79
2023/05/11 11:23:30;;;;;;;3.67;1.10;;;;;;;;;;5050789;28;20652;-79
2023/05/11 11:25:59;;;;;;;4.60;0.98;;;;;;;;;;5050858;28;20573;-79
2023/05/11 11:28:27;;;;;;;5.38;1.20;;;;;;;;;;5051543;28;20246;-79
2023/05/11 11:31:12;;;;;;;3.75;1.02;;;;;;;;;;5050754;28;20697;-80
2023/05/11 11:33:39;;;;;;;3.50;1.10;;;;;;;;;;5050984;28;20291;-79
2023/05/11 11:36:07;;;;;;;2.55;0.75;;;;;;;;;;5051508;28;20195;-79
2023/05/11 11:38:34;;;;;;;3.75;0.70;;;;;;;;;;5050619;28;20231;-80
2023/05/11 11:41:03;;;;;;;3.88;0.90;;;;;;;;;;5051443;28;20200;-80
2023/05/11 11:43:43;;;;;;;5.00;1.00;;;;;;;;;;5051812;28;20223;-80
2023/05/11 11:46:25;;;;;;;6.03;2.13;;;;;;;;;;5054476;28;20278;-79
2023/05/11 11:48:52;;;;;;;6.03;2.05;;;;;;;;;;5054614;28;20326;-79
2023/05/11 11:51:19;;;;;;;2.90;1.40;;;;;;;;;;5054507;28;20291;-80
2023/05/11 11:54:05;;;;;;;3.50;1.10;;;;;;;;;;5054861;28;20279;-79
2023/05/11 11:56:41;;;;;;;3.90;1.77;;;;;;;;;;5054668;28;20207;-80
2023/05/11 11:59:12;;;;;;;2.92;1.23;;;;;;;;;;5054363;28;20633;-80
2023/05/11 12:01:40;;;;;;;2.22;0.77;;;;;;;;;;5054367;28;20715;-79
2023/05/11 12:04:18;;;;;;;1.55;0.68;;;;;;;;;;5054153;28;20227;-79
2023/05/11 12:06:46;;;;;;;1.95;0.60;;;;;;;;;;5054292;28;20282;-80
2023/05/11 12:09:18;;;;;;;3.15;0.70;;;;;;;;;;5054645;28;20257;-79
2023/05/11 12:11:47;;;;;;;1.75;0.80;;;;;;;;;;5054727;28;20249;-79
2023/05/11 12:14:15;;;;;;;1.00;0.60;;;;;;;;;;5053760;28;20254;-79
2023/05/11 12:16:43;;;;;;;0.80;0.45;;;;;;;;;;5054263;28;20290;-79
2023/05/11 12:19:10;;;;;;;1.05;0.50;;;;;;;;;;5054298;28;20653;-79
2023/05/11 12:21:37;;;;;;;1.73;0.60;;;;;;;;;;5054282;28;20645;-80
2023/05/11 12:24:05;;;;;;;4.22;0.50;;;;;;;;;;5054120;28;20314;-80
2023/05/11 12:26:34;;;;;;;0.90;0.40;;;;;;;;;;5054028;28;20210;-80
2023/05/11 12:29:09;;;;;;;1.00;0.50;;;;;;;;;;5053053;28;20195;-79
2023/05/11 12:31:36;;;;;;;1.27;0.43;;;;;;;;;;5034178;28;20319;-80
2023/05/11 12:34:03;;;;;;;0.90;0.40;;;;;;;;;;5033762;28;20661;-80
2023/05/11 12:36:31;;;;;;;1.63;0.60;;;;;;;;;;5033944;28;20227;-79
2023/05/11 12:38:59;;;;;;;1.92;0.70;;;;;;;;;;5034407;28;20204;-79
2023/05/11 12:41:27;;;;;;;1.83;0.40;;;;;;;;;;5034152;28;20229;-79
2023/05/11 12:43:55;;;;;;;1.20;0.50;;;;;;;;;;5033438;28;20220;-80
2023/05/11 12:46:24;;;;;;;1.67;0.60;;;;;;;;;;5033809;28;20736;-80
2023/05/11 12:48:52;;;;;;;1.27;0.47;;;;;;;;;;5033421;28;20731;-80
2023/05/11 12:51:37;;;;;;;1.58;0.50;;;;;;;;;;5033688;28;20748;-80
2023/05/11 12:54:05;;;;;;;1.67;0.65;;;;;;;;;;5033441;28;20295;-80
2023/05/11 12:56:44;;;;;;;3.97;0.88;;;;;;;;;;5033493;28;20219;-79
2023/05/11 12:59:24;;;;;;;2.00;0.68;;;;;;;;;;5032896;28;20295;-79
2023/05/11 13:01:52;;;;;;;2.22;0.80;;;;;;;;;;5033732;28;20196;-79
2023/05/11 13:04:28;;;;;;;1.63;0.70;;;;;;;;;;5033669;28;20661;-80
2023/05/11 13:06:55;;;;;;;2.55;0.63;;;;;;;;;;5033286;28;20306;-79
2023/05/11 13:09:23;;;;;;;3.85;0.80;;;;;;;;;;5033395;28;20224;-79
2023/05/11 13:11:50;;;;;;;2.80;0.85;;;;;;;;;;5032763;28;20713;-80
2023/05/11 13:14:17;;;;;;;3.63;0.95;;;;;;;;;;5033421;28;20238;-79
2023/05/11 13:16:54;;;;;;;3.00;1.10;;;;;;;;;;5033311;28;20231;-79
2023/05/11 13:19:28;;;;;;;4.05;1.15;;;;;;;;;;5033251;28;20196;-80
2023/05/11 13:21:56;;;;;;;1.55;0.80;;;;;;;;;;5033271;28;20200;-79
2023/05/11 13:24:23;;;;;;;2.03;0.70;;;;;;;;;;5033142;28;20235;-79
2023/05/11 13:26:51;;;;;;;3.83;0.90;;;;;;;;;;5032849;28;20216;-80
2023/05/11 13:29:18;;;;;;;2.08;0.80;;;;;;;;;;5033036;28;20577;-79
2023/05/11 13:31:45;;;;;;;2.25;0.68;;;;;;;;;;5033073;28;20295;-80
2023/05/11 13:34:14;;;;;;;1.45;0.55;;;;;;;;;;5033262;28;20205;-80
2023/05/11 13:36:41;;;;;;;2.53;0.60;;;;;;;;;;5032493;28;20291;-80
2023/05/11 13:39:08;;;;;;;2.45;0.60;;;;;;;;;;5032911;28;20291;-80
2023/05/11 13:41:35;;;;;;;5.90;1.15;;;;;;;;;;5032285;28;20287;-80
2023/05/11 13:44:03;;;;;;;1.38;0.70;;;;;;;;;;5032615;28;20230;-79
2023/05/11 13:46:30;;;;;;;1.38;0.60;;;;;;;;;;5032480;28;20242;-80
2023/05/11 13:48:59;;;;;;;2.50;0.88;;;;;;;;;;5032685;28;20263;-80
2023/05/11 13:51:27;;;;;;;2.35;0.80;;;;;;;;;;5033000;28;20204;-80
2023/05/11 13:53:54;;;;;;;3.22;0.90;;;;;;;;;;5032555;28;20297;-79
2023/05/11 13:56:22;;;;;;;2.47;1.00;;;;;;;;;;5032096;28;20284;-79
2023/05/11 13:58:49;;;;;;;2.60;0.70;;;;;;;;;;5032491;28;20574;-81
2023/05/11 14:01:16;;;;;;;2.22;0.75;;;;;;;;;;5032337;28;20284;-79
2023/05/11 14:03:43;;;;;;;2.38;0.80;;;;;;;;;;5032680;28;20224;-79
2023/05/11 14:06:10;;;;;;;2.53;1.02;;;;;;;;;;5031758;28;20224;-79
2023/05/11 14:08:39;;;;;;;1.20;0.63;;;;;;;;;;5030955;28;20700;-78
2023/05/11 14:11:06;;;;;;;3.17;0.80;;;;;;;;;;5032157;28;20606;-80
2023/05/11 14:13:33;;;;;;;2.72;0.90;;;;;;;;;;5034550;28;20742;-80
2023/05/11 14:16:01;;;;;;;2.53;1.17;;;;;;;;;;5052118;28;20286;-79
2023/05/11 14:18:28;;;;;;;2.90;0.90;;;;;;;;;;5051638;28;20560;-80
2023/05/11 14:20:55;;;;;;;3.03;0.73;;;;;;;;;;5052351;28;20627;-80
2023/05/11 14:23:23;;;;;;;3.03;0.65;;;;;;;;;;5051769;28;20199;-79
2023/05/11 14:25:51;;;;;;;1.70;0.80;;;;;;;;;;5051075;28;20314;-80
2023/05/11 14:28:18;;;;;;;2.60;0.77;;;;;;;;;;5026968;28;20199;-79
2023/05/11 14:30:45;;;;;;;1.15;0.65;;;;;;;;;;5019627;28;20289;-79
2023/05/11 14:33:13;;;;;;;3.40;1.00;;;;;;;;;;5030398;28;20205;-80
2023/05/11 14:35:40;;;;;;;1.85;1.05;;;;;;;;;;5036012;28;20229;-79
2023/05/11 14:38:07;;;;;;;1.80;0.82;;;;;;;;;;5029437;28;20554;-79
2023/05/11 14:40:34;;;;;;;2.17;0.70;;;;;;;;;;5027617;28;20643;-79
2023/05/11 14:43:03;;;;;;;3.17;1.02;;;;;;;;;;5030231;28;20200;-79
2023/05/11 14:45:30;;;;;;;1.70;0.80;;;;;;;;;;5026486;28;20741;-79
2023/05/11 14:47:57;;;;;;;2.40;0.90;;;;;;;;;;5019844;28;20220;-79
2023/05/11 14:50:25;;;;;;;1.58;0.80;;;;;;;;;;5011756;28;20235;-80
2023/05/11 14:52:52;;;;;;;2.25;0.80;;;;;;;;;;5011447;28;20201;-79